createdAt,value
2023-05-20T00:01:53.392Z,100169.28
2023-05-20T00:04:20.723Z,100166.53
2023-05-20T00:06:48.096Z,100169.16
2023-05-20T00:09:16.921Z,100167.38
2023-05-20T00:11:44.193Z,100168.31
2023-05-20T00:14:11.411Z,100165.69
2023-05-20T00:16:38.706Z,100159.50
2023-05-20T00:19:05.997Z,100160.28
2023-05-20T00:21:33.951Z,100165.63
2023-05-20T00:24:01.698Z,100164.75
2023-05-20T00:26:29.814Z,100154.84
2023-05-20T00:28:57.986Z,100146.97
2023-05-20T00:31:25.387Z,100153.06
2023-05-20T00:33:53.063Z,100150.38
2023-05-20T00:36:20.643Z,100147.88
2023-05-20T00:38:48.030Z,100150.69
2023-05-20T00:41:15.325Z,100146.22
2023-05-20T00:43:42.538Z,100154.22
2023-05-20T00:46:11.222Z,100145.50
2023-05-20T00:48:43.463Z,100151.81
2023-05-20T00:51:13.439Z,100157.81
2023-05-20T00:53:41.659Z,100158.66
2023-05-20T00:56:09.477Z,100147.28
2023-05-20T00:58:39.953Z,100145.66
2023-05-20T01:01:07.483Z,100148.28
2023-05-20T01:03:34.862Z,100146.63
2023-05-20T01:06:03.175Z,100137.75
2023-05-20T01:08:30.547Z,100133.22
2023-05-20T01:11:16.544Z,100128.16
2023-05-20T01:13:55.547Z,100136.91
2023-05-20T01:16:24.772Z,100133.47
2023-05-20T01:18:57.277Z,100128.97
2023-05-20T01:21:25.032Z,100129.09
2023-05-20T01:23:52.271Z,100129.88
2023-05-20T01:26:19.544Z,100121.03
2023-05-20T01:28:46.872Z,100128.97
2023-05-20T01:31:24.903Z,100116.56
2023-05-20T01:33:59.926Z,100115.66
2023-05-20T01:36:31.344Z,100114.00
2023-05-20T01:39:00.149Z,100116.63
2023-05-20T01:41:29.115Z,100110.47
2023-05-20T01:43:56.604Z,100119.25
2023-05-20T01:46:23.991Z,100110.19
2023-05-20T01:48:51.308Z,100111.13
2023-05-20T01:51:18.501Z,100107.63
2023-05-20T01:53:45.849Z,100112.97
2023-05-20T01:56:13.591Z,100093.63
2023-05-20T01:58:40.992Z,100097.97
2023-05-20T02:01:08.449Z,100096.19
2023-05-20T02:03:35.826Z,100089.91
2023-05-20T02:06:03.189Z,100082.88
2023-05-20T02:08:30.446Z,100089.19
2023-05-20T02:10:57.618Z,100084.00
2023-05-20T02:13:25.060Z,100085.63
2023-05-20T02:15:52.431Z,100085.56
2023-05-20T02:18:19.658Z,100089.78
2023-05-20T02:20:47.083Z,100087.94
2023-05-20T02:23:14.804Z,100079.78
2023-05-20T02:25:42.027Z,100083.22
2023-05-20T02:28:10.921Z,100080.72
2023-05-20T02:30:41.587Z,100083.38
2023-05-20T02:33:09.717Z,100086.91
2023-05-20T02:35:37.494Z,100075.41
2023-05-20T02:38:04.754Z,100078.09
2023-05-20T02:40:32.101Z,100078.94
2023-05-20T02:43:01.818Z,100077.31
2023-05-20T02:45:30.038Z,100069.28
2023-05-20T02:47:57.611Z,100067.47
2023-05-20T02:50:25.165Z,100069.16
2023-05-20T02:52:52.346Z,100067.34
2023-05-20T02:55:19.752Z,100063.00
2023-05-20T02:57:47.007Z,100054.34
2023-05-20T03:00:14.573Z,100049.03
2023-05-20T03:02:41.869Z,100055.19
2023-05-20T03:05:09.684Z,100057.63
2023-05-20T03:07:36.953Z,100057.69
2023-05-20T03:10:09.246Z,100054.28
2023-05-20T03:12:38.534Z,100053.28
2023-05-20T03:15:07.164Z,100051.59
2023-05-20T03:17:36.222Z,100049.81
2023-05-20T03:20:04.030Z,100055.97
2023-05-20T03:22:31.877Z,100060.31
2023-05-20T03:25:00.468Z,100051.47
2023-05-20T03:27:27.979Z,100053.28
2023-05-20T03:29:55.197Z,100041.88
2023-05-20T03:32:22.567Z,100041.75
2023-05-20T03:34:49.848Z,100038.09
2023-05-20T03:37:17.157Z,100035.47
2023-05-20T03:39:44.359Z,100031.84
2023-05-20T03:42:11.602Z,100035.34
2023-05-20T03:44:39.408Z,100035.34
2023-05-20T03:47:06.773Z,100029.22
2023-05-20T03:49:33.978Z,100029.41
2023-05-20T03:52:01.364Z,100031.13
2023-05-20T03:54:30.005Z,100027.53
2023-05-20T03:56:57.321Z,100024.09
2023-05-20T03:59:24.581Z,100026.66
2023-05-20T04:01:51.886Z,100026.66
2023-05-20T04:04:19.266Z,100027.53
2023-05-20T04:06:46.545Z,100026.66
2023-05-20T04:09:13.752Z,100029.34
2023-05-20T04:11:41.043Z,100029.53
2023-05-20T04:14:10.523Z,100036.63
2023-05-20T04:16:38.876Z,100023.56
2023-05-20T04:19:06.171Z,100027.16
2023-05-20T04:21:33.541Z,100028.94
2023-05-20T04:24:00.748Z,100021.06
2023-05-20T04:26:28.948Z,100018.38
2023-05-20T04:28:58.965Z,100010.50
2023-05-20T04:31:29.330Z,100007.94
2023-05-20T04:33:57.758Z,99997.63
2023-05-20T04:36:28.791Z,100002.81
2023-05-20T04:38:57.286Z,100002.69
2023-05-20T04:41:24.789Z,100002.63
2023-05-20T04:43:51.962Z,100006.16
2023-05-20T04:46:20.477Z,99995.66
2023-05-20T04:48:48.177Z,100007.88
2023-05-20T04:51:16.136Z,100008.06
2023-05-20T04:53:46.170Z,99998.66
2023-05-20T04:56:13.585Z,99990.91
2023-05-20T04:58:41.534Z,99991.03
2023-05-20T05:01:08.904Z,99990.25
2023-05-20T05:03:36.817Z,99987.81
2023-05-20T05:06:04.724Z,99987.88
2023-05-20T05:08:32.083Z,99992.47
2023-05-20T05:10:59.641Z,99983.03
2023-05-20T05:13:26.889Z,99993.59
2023-05-20T05:16:02.228Z,99987.88
2023-05-20T05:18:31.165Z,99977.41
2023-05-20T05:21:06.497Z,99977.34
2023-05-20T05:23:35.482Z,99980.09
2023-05-20T05:26:02.741Z,99976.84
2023-05-20T05:28:30.076Z,99973.13
2023-05-20T05:30:58.320Z,99968.91
2023-05-20T05:33:26.777Z,99975.16
2023-05-20T05:35:54.587Z,99976.09
2023-05-20T05:38:21.892Z,99965.78
2023-05-20T05:40:49.087Z,99958.84
2023-05-20T05:43:17.314Z,99956.94
2023-05-20T05:45:46.867Z,99955.25
2023-05-20T05:48:14.258Z,99954.41
2023-05-20T05:50:48.563Z,99949.22
2023-05-20T05:53:17.752Z,99957.09
2023-05-20T05:55:48.247Z,99956.50
2023-05-20T05:58:17.666Z,99955.91
2023-05-20T06:00:44.954Z,99955.94
2023-05-20T06:03:12.915Z,99968.97
2023-05-20T06:05:40.669Z,99952.34
2023-05-20T06:08:08.114Z,99951.47
2023-05-20T06:10:36.855Z,99954.22
2023-05-20T06:13:04.095Z,99954.31
2023-05-20T06:15:33.006Z,99963.38
2023-05-20T06:18:00.643Z,99971.31
2023-05-20T06:20:28.280Z,99966.22
2023-05-20T06:22:55.663Z,99965.59
2023-05-20T06:25:25.871Z,99963.97
2023-05-20T06:27:53.113Z,99959.00
2023-05-20T06:30:20.950Z,99956.53
2023-05-20T06:32:48.802Z,99951.59
2023-05-20T06:35:16.699Z,99952.69
2023-05-20T06:37:43.970Z,99947.59
2023-05-20T06:40:12.653Z,99951.78
2023-05-20T06:42:39.919Z,99950.13
2023-05-20T06:45:07.999Z,99953.41
2023-05-20T06:47:57.990Z,99949.97
2023-05-20T06:50:30.005Z,99954.44
2023-05-20T06:53:15.192Z,99951.69
2023-05-20T06:55:42.477Z,99954.97
2023-05-20T06:58:09.750Z,99951.91
2023-05-20T07:00:39.236Z,99957.75
2023-05-20T07:03:06.653Z,99961.13
2023-05-20T07:05:34.249Z,99962.78
2023-05-20T07:08:01.732Z,99961.22
2023-05-20T07:10:29.780Z,99952.59
2023-05-20T07:12:57.031Z,99963.00
2023-05-20T07:15:24.383Z,99956.72
2023-05-20T07:17:51.999Z,99961.13
2023-05-20T07:20:19.439Z,99968.31
2023-05-20T07:22:48.714Z,99958.81
2023-05-20T07:25:21.789Z,99959.78
2023-05-20T07:27:49.413Z,99949.03
2023-05-20T07:30:17.106Z,99964.94
2023-05-20T07:32:51.097Z,99954.63
2023-05-20T07:35:18.441Z,99951.25
2023-05-20T07:37:45.936Z,99949.53
2023-05-20T07:40:14.493Z,99952.28
2023-05-20T07:42:42.417Z,99947.22
2023-05-20T07:45:10.930Z,99952.69
2023-05-20T07:47:38.763Z,99953.56
2023-05-20T07:50:06.978Z,99946.75
2023-05-20T07:52:51.834Z,99953.03
2023-05-20T07:55:24.124Z,99936.44
2023-05-20T07:57:51.558Z,99943.38
2023-05-20T08:00:19.786Z,99938.22
2023-05-20T08:02:47.268Z,99944.22
2023-05-20T08:05:19.594Z,99943.38
2023-05-20T08:07:47.709Z,99934.53
2023-05-20T08:10:16.069Z,99937.19
2023-05-20T08:12:46.367Z,99945.19
2023-05-20T08:15:13.813Z,99943.53
2023-05-20T08:17:41.697Z,99944.38
2023-05-20T08:20:12.664Z,99944.28
2023-05-20T08:22:40.383Z,99943.38
2023-05-20T08:25:09.913Z,99948.69
2023-05-20T08:27:37.595Z,99953.88
2023-05-20T08:30:08.159Z,99950.53
2023-05-20T08:32:36.894Z,99956.94
2023-05-20T08:35:05.328Z,99955.38
2023-05-20T08:37:32.511Z,99965.34
2023-05-20T08:39:59.707Z,99966.47
2023-05-20T08:42:26.945Z,99956.94
2023-05-20T08:44:58.142Z,99962.25
2023-05-20T08:47:27.076Z,99956.88
2023-05-20T08:49:54.379Z,99953.16
2023-05-20T08:52:22.961Z,99965.41
2023-05-20T08:54:52.057Z,99963.69
2023-05-20T08:57:20.354Z,99972.38
2023-05-20T08:59:47.544Z,99979.63
2023-05-20T09:02:15.200Z,99972.53
2023-05-20T09:04:42.510Z,99970.81
2023-05-20T09:07:09.906Z,99974.22
2023-05-20T09:09:37.132Z,99986.63
2023-05-20T09:12:04.860Z,99978.78
2023-05-20T09:14:32.430Z,99983.28
2023-05-20T09:17:00.204Z,99983.47
2023-05-20T09:19:27.513Z,99990.00
2023-05-20T09:21:55.526Z,99995.63
2023-05-20T09:24:27.111Z,99999.31
2023-05-20T09:26:54.525Z,100004.78
2023-05-20T09:29:21.983Z,100010.38
2023-05-20T09:31:50.749Z,100011.44
2023-05-20T09:34:19.826Z,100011.72
2023-05-20T09:36:51.069Z,100010.47
2023-05-20T09:39:31.385Z,100003.13
2023-05-20T09:42:12.628Z,99999.03
2023-05-20T09:44:41.104Z,100004.53
2023-05-20T09:47:09.587Z,99997.63
2023-05-20T09:49:38.068Z,99995.66
2023-05-20T09:52:05.975Z,99997.25
2023-05-20T09:54:35.815Z,99995.28
2023-05-20T09:57:05.178Z,100006.56
2023-05-20T09:59:33.650Z,100001.31
2023-05-20T10:02:01.058Z,100005.03
2023-05-20T10:04:30.771Z,100005.22
2023-05-20T10:07:20.906Z,100010.50
2023-05-20T10:10:51.045Z,100002.53
2023-05-20T10:13:45.398Z,100004.31
2023-05-20T10:16:45.024Z,100013.97
2023-05-20T10:19:33.981Z,100001.44
2023-05-20T10:22:10.297Z,99999.53
2023-05-20T10:24:44.660Z,99996.81
2023-05-20T10:27:17.204Z,99993.44
2023-05-20T10:29:57.133Z,99991.91
2023-05-20T10:32:26.062Z,99995.38
2023-05-20T10:34:53.601Z,99994.44
2023-05-20T10:37:28.082Z,99981.34
2023-05-20T10:40:18.771Z,99987.66
2023-05-20T10:42:47.355Z,99983.13
2023-05-20T10:45:29.816Z,99985.94
2023-05-20T10:47:59.264Z,99986.06
2023-05-20T10:50:36.698Z,99987.16
2023-05-20T10:53:09.473Z,99972.47
2023-05-20T10:55:47.911Z,99963.94
2023-05-20T10:58:15.767Z,99964.47
2023-05-20T11:00:43.841Z,99956.91
2023-05-20T11:03:20.484Z,99945.56
2023-05-20T11:05:49.021Z,99940.94
2023-05-20T11:08:27.755Z,99941.09
2023-05-20T11:10:57.961Z,99956.38
2023-05-20T11:13:26.546Z,99963.00
2023-05-20T11:15:54.328Z,99959.34
2023-05-20T11:18:21.543Z,99947.75
2023-05-20T11:20:48.925Z,99949.44
2023-05-20T11:23:16.460Z,99940.63
2023-05-20T11:25:43.738Z,99945.97
2023-05-20T11:28:14.611Z,99937.69
2023-05-20T11:30:43.680Z,99939.63
2023-05-20T11:33:17.196Z,99920.69
2023-05-20T11:35:53.712Z,99922.75
2023-05-20T11:38:21.851Z,99929.03
2023-05-20T11:40:56.496Z,99937.16
2023-05-20T11:43:24.867Z,99936.84
2023-05-20T11:46:01.577Z,99943.63
2023-05-20T11:48:28.936Z,99932.47
2023-05-20T11:50:57.092Z,99931.31
2023-05-20T11:53:25.298Z,99933.66
2023-05-20T11:56:01.185Z,99934.78
2023-05-20T11:58:34.916Z,99944.09
2023-05-20T12:01:14.047Z,99944.94
2023-05-20T12:03:48.935Z,99924.88
2023-05-20T12:06:18.365Z,99925.66
2023-05-20T12:08:46.500Z,99931.63
2023-05-20T12:11:13.918Z,99929.13
2023-05-20T12:13:41.191Z,99929.31
2023-05-20T12:16:08.442Z,99923.13
2023-05-20T12:18:35.824Z,99925.91
2023-05-20T12:21:05.851Z,99924.50
2023-05-20T12:23:34.313Z,99925.41
2023-05-20T12:26:09.674Z,99911.94
2023-05-20T12:28:37.158Z,99906.63
2023-05-20T12:31:05.802Z,99898.84
2023-05-20T12:33:33.189Z,99902.72
2023-05-20T12:36:00.591Z,99898.28
2023-05-20T12:38:28.060Z,99899.19
2023-05-20T12:40:55.427Z,99900.38
2023-05-20T12:43:22.692Z,99905.31
2023-05-20T12:45:51.217Z,99902.25
2023-05-20T12:48:18.562Z,99897.91
2023-05-20T12:50:46.021Z,99903.13
2023-05-20T12:53:13.228Z,99902.34
2023-05-20T12:55:40.796Z,99908.63
2023-05-20T12:58:10.828Z,99902.72
2023-05-20T13:00:38.141Z,99897.00
2023-05-20T13:03:09.103Z,99887.38
2023-05-20T13:05:36.403Z,99885.66
2023-05-20T13:08:03.991Z,99875.25
2023-05-20T13:10:31.470Z,99878.00
2023-05-20T13:12:59.596Z,99883.97
2023-05-20T13:15:26.869Z,99886.72
2023-05-20T13:17:54.517Z,99890.88
2023-05-20T13:20:22.041Z,99890.75
2023-05-20T13:22:50.494Z,99891.47
2023-05-20T13:25:17.830Z,99895.81
2023-05-20T13:27:45.080Z,99895.38
2023-05-20T13:30:12.654Z,99889.56
2023-05-20T13:32:40.019Z,99884.91
2023-05-20T13:35:08.291Z,99895.13
2023-05-20T13:37:35.388Z,99898.13
2023-05-20T13:40:02.556Z,99910.09
2023-05-20T13:42:29.777Z,99912.00
2023-05-20T13:44:57.042Z,99892.31
2023-05-20T13:47:24.317Z,99898.63
2023-05-20T13:49:51.548Z,99896.19
2023-05-20T13:52:18.742Z,99899.59
2023-05-20T13:54:47.462Z,99891.72
2023-05-20T13:57:15.855Z,99899.69
2023-05-20T13:59:43.211Z,99891.00
2023-05-20T14:02:10.698Z,99881.63
2023-05-20T14:04:39.952Z,99879.38
2023-05-20T14:07:09.820Z,99880.34
2023-05-20T14:09:37.328Z,99887.38
2023-05-20T14:12:06.427Z,99889.69
2023-05-20T14:14:33.776Z,99888.75
2023-05-20T14:17:01.006Z,99889.53
2023-05-20T14:19:30.611Z,99894.03
2023-05-20T14:22:01.049Z,99897.13
2023-05-20T14:24:28.553Z,99894.13
2023-05-20T14:26:55.804Z,99903.13
2023-05-20T14:29:22.988Z,99914.94
2023-05-20T14:31:50.574Z,99919.16
2023-05-20T14:34:18.070Z,99911.16
2023-05-20T14:36:45.316Z,99907.69
2023-05-20T14:39:12.498Z,99914.00
2023-05-20T14:41:39.730Z,99902.78
2023-05-20T14:44:06.901Z,99894.16
2023-05-20T14:46:34.448Z,99894.41
2023-05-20T14:49:01.949Z,99895.47
2023-05-20T14:51:29.235Z,99885.56
2023-05-20T14:53:56.550Z,99879.94
2023-05-20T14:56:23.954Z,99893.25
2023-05-20T14:58:51.210Z,99897.50
2023-05-20T15:01:18.549Z,99897.59
2023-05-20T15:03:45.967Z,99889.72
2023-05-20T15:06:13.191Z,99893.88
2023-05-20T15:08:41.561Z,99898.31
2023-05-20T15:11:09.046Z,99913.56
2023-05-20T15:13:37.715Z,99916.47
2023-05-20T15:16:07.688Z,99906.16
2023-05-20T15:18:34.920Z,99906.19
2023-05-20T15:21:02.223Z,99905.19
2023-05-20T15:23:29.978Z,99922.91
2023-05-20T15:26:00.497Z,99915.91
2023-05-20T15:28:31.530Z,99924.06
2023-05-20T15:30:58.772Z,99912.00
2023-05-20T15:33:26.059Z,99915.47
2023-05-20T15:35:53.928Z,99914.56
2023-05-20T15:38:21.092Z,99913.72
2023-05-20T15:40:52.112Z,99918.94
2023-05-20T15:43:20.095Z,99905.81
2023-05-20T15:45:48.276Z,99904.84
2023-05-20T15:48:15.790Z,99905.72
2023-05-20T15:50:42.984Z,99903.91
2023-05-20T15:53:10.762Z,99901.25
2023-05-20T15:55:38.076Z,99892.41
2023-05-20T15:58:05.298Z,99896.00
2023-05-20T16:00:33.030Z,99891.69
2023-05-20T16:03:00.631Z,99907.44
2023-05-20T16:05:28.010Z,99902.13
2023-05-20T16:07:56.894Z,99895.91
2023-05-20T16:10:26.069Z,99893.28
2023-05-20T16:12:53.420Z,99888.75
2023-05-20T16:15:20.919Z,99894.94
2023-05-20T16:17:48.276Z,99892.38
2023-05-20T16:20:15.546Z,99888.00
2023-05-20T16:22:46.188Z,99894.13
2023-05-20T16:25:14.217Z,99887.00
2023-05-20T16:27:41.425Z,99895.63
2023-05-20T16:30:10.164Z,99893.84
2023-05-20T16:32:37.388Z,99897.34
2023-05-20T16:35:06.218Z,99902.72
2023-05-20T16:37:34.299Z,99898.25
2023-05-20T16:40:01.556Z,99903.47
2023-05-20T16:42:29.033Z,99898.97
2023-05-20T16:44:56.539Z,99902.47
2023-05-20T16:47:23.923Z,99900.78
2023-05-20T16:49:52.193Z,99901.63
2023-05-20T16:52:19.442Z,99904.38
2023-05-20T16:54:46.902Z,99913.19
2023-05-20T16:57:15.874Z,99910.59
2023-05-20T16:59:43.177Z,99898.28
2023-05-20T17:02:10.614Z,99901.03
2023-05-20T17:04:40.192Z,99902.75
2023-05-20T17:07:09.861Z,99907.19
2023-05-20T17:09:37.398Z,99904.47
2023-05-20T17:12:05.479Z,99907.97
2023-05-20T17:14:33.363Z,99906.34
2023-05-20T17:17:00.870Z,99909.06
2023-05-20T17:19:30.723Z,99910.69
2023-05-20T17:21:57.964Z,99913.28
2023-05-20T17:24:25.668Z,99911.50
2023-05-20T17:26:52.932Z,99918.56
2023-05-20T17:29:20.098Z,99918.66
2023-05-20T17:31:47.434Z,99930.09
2023-05-20T17:34:14.762Z,99924.69
2023-05-20T17:36:42.889Z,99922.91
2023-05-20T17:39:10.346Z,99923.72
2023-05-20T17:41:37.672Z,99932.47
2023-05-20T17:44:05.403Z,99943.13
2023-05-20T17:46:32.636Z,99948.19
2023-05-20T17:48:59.842Z,99937.56
2023-05-20T17:51:27.058Z,99941.03
2023-05-20T17:53:54.207Z,99951.56
2023-05-20T17:56:22.797Z,99947.06
2023-05-20T17:58:50.128Z,99947.94
2023-05-20T18:01:17.579Z,99946.16
2023-05-20T18:03:44.973Z,99947.06
2023-05-20T18:06:12.800Z,99944.44
2023-05-20T18:08:40.388Z,99944.38
2023-05-20T18:11:07.599Z,99954.06
2023-05-20T18:13:34.786Z,99954.16
2023-05-20T18:16:01.979Z,99952.25
2023-05-20T18:18:29.205Z,99953.91
2023-05-20T18:20:56.365Z,99953.03
2023-05-20T18:23:23.524Z,99950.31
2023-05-20T18:25:50.739Z,99953.78
2023-05-20T18:28:17.928Z,99951.94
2023-05-20T18:30:45.187Z,99953.69
2023-05-20T18:33:13.596Z,99951.84
2023-05-20T18:35:40.960Z,99951.94
2023-05-20T18:38:08.233Z,99949.25
2023-05-20T18:40:35.764Z,99951.88
2023-05-20T18:43:03.073Z,99954.50
2023-05-20T18:45:30.418Z,99956.31
2023-05-20T18:47:59.780Z,99952.84
2023-05-20T18:50:27.111Z,99953.66
2023-05-20T18:52:54.268Z,99957.09
2023-05-20T18:55:21.499Z,99957.94
2023-05-20T18:57:48.687Z,99958.81
2023-05-20T19:00:17.217Z,99952.59
2023-05-20T19:02:44.921Z,99961.38
2023-05-20T19:05:13.243Z,99951.78
2023-05-20T19:07:40.923Z,99957.03
2023-05-20T19:10:09.338Z,99958.81
2023-05-20T19:12:36.566Z,99958.69
2023-05-20T19:15:05.134Z,99966.53
2023-05-20T19:17:33.268Z,99967.41
2023-05-20T19:20:00.487Z,99973.59
2023-05-20T19:22:27.664Z,99978.84
2023-05-20T19:24:54.979Z,99990.34
2023-05-20T19:27:22.159Z,99991.25
2023-05-20T19:29:49.341Z,99989.59
2023-05-20T19:32:16.551Z,99987.88
2023-05-20T19:34:43.889Z,99991.47
2023-05-20T19:37:12.705Z,99992.28
2023-05-20T19:39:39.942Z,99993.06
2023-05-20T19:42:07.250Z,99997.47
2023-05-20T19:44:34.430Z,99999.16
2023-05-20T19:47:01.712Z,99994.00
2023-05-20T19:49:29.504Z,99986.97
2023-05-20T19:51:56.887Z,99993.22
2023-05-20T19:54:24.136Z,99993.94
2023-05-20T19:56:51.312Z,99991.38
2023-05-20T19:59:18.522Z,99985.22
2023-05-20T20:01:46.191Z,99983.31
2023-05-20T20:04:13.813Z,99985.19
2023-05-20T20:06:41.001Z,100005.28
2023-05-20T20:09:12.271Z,99999.97
2023-05-20T20:11:39.542Z,99993.78
2023-05-20T20:14:06.897Z,99999.91
2023-05-20T20:16:34.695Z,99994.69
2023-05-20T20:19:02.815Z,99990.34
2023-05-20T20:21:30.171Z,99992.97
2023-05-20T20:23:57.467Z,99982.44
2023-05-20T20:26:25.860Z,99975.38
2023-05-20T20:28:53.306Z,99983.25
2023-05-20T20:31:20.650Z,99987.59
2023-05-20T20:33:47.866Z,99987.53
2023-05-20T20:36:15.139Z,99986.69
2023-05-20T20:38:46.689Z,99994.53
2023-05-20T20:41:16.226Z,99995.34
2023-05-20T20:43:44.976Z,100004.09
2023-05-20T20:46:14.895Z,99995.34
2023-05-20T20:48:45.661Z,99997.91
2023-05-20T20:51:17.267Z,99988.22
2023-05-20T20:53:46.998Z,99997.00
2023-05-20T20:56:14.390Z,99992.66
2023-05-20T20:58:41.724Z,99997.91
2023-05-20T21:01:11.427Z,99986.47
2023-05-20T21:03:40.074Z,99982.13
2023-05-20T21:06:08.055Z,99976.75
2023-05-20T21:08:35.563Z,99980.22
2023-05-20T21:11:02.925Z,99975.75
2023-05-20T21:13:33.199Z,99983.59
2023-05-20T21:16:00.761Z,99981.81
2023-05-20T21:18:27.989Z,99973.81
2023-05-20T21:20:56.101Z,99981.81
2023-05-20T21:23:23.348Z,99978.22
2023-05-20T21:25:50.579Z,99971.19
2023-05-20T21:28:17.929Z,99964.91
2023-05-20T21:30:45.241Z,99971.88
2023-05-20T21:33:12.563Z,99981.69
2023-05-20T21:35:39.879Z,99980.75
2023-05-20T21:38:07.150Z,99978.09
2023-05-20T21:40:34.483Z,99976.31
2023-05-20T21:43:01.934Z,99966.56
2023-05-20T21:45:29.200Z,99964.00
2023-05-20T21:47:57.373Z,99970.97
2023-05-20T21:50:24.766Z,99977.16
2023-05-20T21:52:52.743Z,99978.09
2023-05-20T21:55:23.469Z,99978.00
2023-05-20T21:57:51.387Z,99976.22
2023-05-20T22:00:22.138Z,99973.53
2023-05-20T22:02:50.777Z,99976.94
2023-05-20T22:05:18.247Z,99979.56
2023-05-20T22:07:45.521Z,99977.78
2023-05-20T22:10:14.176Z,99977.78
2023-05-20T22:12:44.489Z,99978.69
2023-05-20T22:15:11.955Z,99978.63
2023-05-20T22:17:39.673Z,99973.38
2023-05-20T22:20:08.603Z,99973.31
2023-05-20T22:22:36.322Z,99961.03
2023-05-20T22:25:03.889Z,99960.22
2023-05-20T22:27:32.344Z,99967.16
2023-05-20T22:29:59.699Z,99960.97
2023-05-20T22:32:26.960Z,99961.84
2023-05-20T22:34:58.088Z,99966.13
2023-05-20T22:37:28.825Z,99955.66
2023-05-20T22:39:56.729Z,99961.78
2023-05-20T22:42:30.141Z,99952.13
2023-05-20T22:44:57.524Z,99959.16
2023-05-20T22:47:25.010Z,99957.38
2023-05-20T22:49:52.446Z,99961.72
2023-05-20T22:52:21.124Z,99963.44
2023-05-20T22:54:48.443Z,99959.91
2023-05-20T22:57:17.011Z,99964.31
2023-05-20T22:59:44.416Z,99957.31
2023-05-20T23:02:14.553Z,99950.19
2023-05-20T23:04:41.888Z,99952.81
2023-05-20T23:07:09.139Z,99942.34
2023-05-20T23:09:36.480Z,99931.94
2023-05-20T23:12:04.171Z,99935.47
2023-05-20T23:14:31.868Z,99925.75
2023-05-20T23:16:59.446Z,99924.84
2023-05-20T23:19:29.799Z,99911.69
2023-05-20T23:21:59.872Z,99916.91
2023-05-20T23:24:27.208Z,99908.97
2023-05-20T23:26:54.558Z,99908.06
2023-05-20T23:29:22.318Z,99905.38
2023-05-20T23:31:50.989Z,99904.38
2023-05-20T23:34:18.550Z,99901.72
2023-05-20T23:36:46.869Z,99902.53
2023-05-20T23:39:16.155Z,99903.47
2023-05-20T23:41:47.154Z,99898.28
2023-05-20T23:44:14.624Z,99899.91
2023-05-20T23:46:41.957Z,99893.72
2023-05-20T23:49:10.196Z,99893.66
2023-05-20T23:51:37.552Z,99888.34
2023-05-20T23:54:05.047Z,99878.66
2023-05-20T23:56:32.322Z,99882.09
2023-05-20T23:59:02.136Z,99881.97
